TimeCST,TemperatureF,Dew PointF,Humidity,Sea Level PressureIn,VisibilityMPH,Wind Direction,Wind SpeedMPH,Gust SpeedMPH,PrecipitationIn,Events,Conditions,WindDirDegrees,DateUTC
12:08 AM,15.1,6.1,68,-9999,-9999.0,South,9.2,-,N/A,,Unknown,170,2014-02-03 06:08:00
12:28 AM,16.0,7.2,68,-9999,-9999.0,SSE,10.4,-,N/A,,Unknown,160,2014-02-03 06:28:00
12:48 AM,14.0,5.0,67,-9999,-9999.0,SSE,9.2,-,N/A,,Unknown,160,2014-02-03 06:48:00
1:08 AM,12.9,5.0,71,-9999,-9999.0,SSE,9.2,-,N/A,,Unknown,150,2014-02-03 07:08:00
1:28 AM,12.0,4.1,71,-9999,-9999.0,SSE,8.1,-,N/A,,Unknown,160,2014-02-03 07:28:00
1:48 AM,12.9,6.1,74,-9999,-9999.0,SSE,8.1,-,N/A,,Unknown,160,2014-02-03 07:48:00
2:08 AM,-9999,-9999,N/A,-9999,-9999.0,North,-9999.0,-,N/A,,Unknown,0,2014-02-03 08:08:00
2:28 AM,14.0,6.1,71,-9999,-9999.0,South,9.2,-,N/A,,Unknown,170,2014-02-03 08:28:00
2:48 AM,17.1,8.1,68,-9999,-9999.0,South,11.5,-,N/A,,Unknown,170,2014-02-03 08:48:00
3:08 AM,19.0,10.0,68,-9999,-9999.0,South,12.7,-,N/A,,Unknown,170,2014-02-03 09:08:00
3:28 AM,19.0,11.1,71,-9999,-9999.0,South,13.8,-,N/A,,Unknown,170,2014-02-03 09:28:00
3:48 AM,19.9,11.1,69,-9999,-9999.0,South,13.8,-,N/A,,Unknown,170,2014-02-03 09:48:00
4:08 AM,21.9,14.0,72,-9999,-9999.0,South,13.8,-,N/A,,Unknown,170,2014-02-03 10:08:00
4:28 AM,23.0,14.0,68,-9999,-9999.0,South,13.8,-,N/A,,Unknown,170,2014-02-03 10:28:00
4:48 AM,23.0,14.0,68,-9999,-9999.0,South,12.7,-,N/A,,Unknown,180,2014-02-03 10:48:00
5:08 AM,23.0,15.1,72,-9999,-9999.0,South,10.4,-,N/A,,Unknown,170,2014-02-03 11:08:00
5:28 AM,24.1,15.1,69,-9999,-9999.0,South,13.8,-,N/A,,Unknown,170,2014-02-03 11:28:00
5:48 AM,25.0,16.2,69,-9999,-9999.0,South,13.8,-,N/A,,Unknown,170,2014-02-03 11:48:00
6:08 AM,25.0,17.1,72,-9999,-9999.0,South,11.5,-,N/A,,Unknown,170,2014-02-03 12:08:00
6:28 AM,25.0,16.2,69,-9999,-9999.0,South,13.8,-,N/A,,Unknown,170,2014-02-03 12:28:00
6:48 AM,25.0,16.2,69,-9999,-9999.0,South,16.1,-,N/A,,Unknown,170,2014-02-03 12:48:00
7:08 AM,25.0,16.2,69,-9999,-9999.0,South,16.1,-,N/A,,Unknown,170,2014-02-03 13:08:00
7:28 AM,26.1,16.2,66,-9999,-9999.0,South,21.9,-,N/A,,Unknown,170,2014-02-03 13:28:00
7:48 AM,26.1,15.1,63,-9999,-9999.0,South,19.6,-,N/A,,Unknown,170,2014-02-03 13:48:00
8:08 AM,26.1,17.1,69,-9999,-9999.0,South,13.8,-,N/A,,Unknown,180,2014-02-03 14:08:00
8:28 AM,27.0,18.1,69,-9999,-9999.0,South,15.0,-,N/A,,Unknown,180,2014-02-03 14:28:00
8:48 AM,28.0,19.0,69,-9999,-9999.0,South,12.7,-,N/A,,Unknown,180,2014-02-03 14:48:00
9:08 AM,30.0,21.0,69,-9999,-9999.0,South,12.7,-,N/A,,Unknown,180,2014-02-03 15:08:00
9:28 AM,30.9,20.1,64,-9999,-9999.0,South,16.1,-,N/A,,Unknown,190,2014-02-03 15:28:00
9:48 AM,33.1,21.0,61,-9999,-9999.0,South,12.7,-,N/A,,Unknown,190,2014-02-03 15:48:00
10:08 AM,34.0,22.1,62,-9999,-9999.0,South,20.7,-,N/A,,Unknown,190,2014-02-03 16:08:00
10:28 AM,35.1,22.1,59,-9999,-9999.0,South,17.3,-,N/A,,Unknown,190,2014-02-03 16:28:00
10:48 AM,36.0,23.0,59,-9999,-9999.0,South,16.1,-,N/A,,Unknown,190,2014-02-03 16:48:00
11:08 AM,37.0,22.1,55,-9999,-9999.0,South,16.1,-,N/A,,Unknown,190,2014-02-03 17:08:00
11:28 AM,37.9,23.0,55,-9999,-9999.0,South,17.3,-,N/A,,Unknown,190,2014-02-03 17:28:00
11:48 AM,39.9,25.2,56,-9999,-9999.0,South,15.0,-,N/A,,Unknown,190,2014-02-03 17:48:00
12:08 PM,39.9,25.2,56,-9999,-9999.0,South,15.0,-,N/A,,Unknown,180,2014-02-03 18:08:00
12:28 PM,41.0,25.2,53,-9999,-9999.0,South,13.8,-,N/A,,Unknown,190,2014-02-03 18:28:00
12:48 PM,42.1,25.2,51,-9999,-9999.0,SSW,17.3,-,N/A,,Unknown,200,2014-02-03 18:48:00
1:08 PM,43.0,26.1,51,-9999,-9999.0,SW,15.0,-,N/A,,Unknown,220,2014-02-03 19:08:00
1:28 PM,44.1,25.2,47,-9999,-9999.0,SSW,13.8,-,N/A,,Unknown,200,2014-02-03 19:28:00
1:48 PM,44.1,24.1,45,-9999,-9999.0,North,-9999.0,-,N/A,,Unknown,0,2014-02-03 19:48:00
2:08 PM,44.1,25.2,47,-9999,-9999.0,SSW,16.1,-,N/A,,Unknown,200,2014-02-03 20:08:00
2:28 PM,45.0,27.1,50,-9999,-9999.0,South,17.3,-,N/A,,Unknown,180,2014-02-03 20:28:00
2:48 PM,45.0,26.1,48,-9999,-9999.0,South,17.3,-,N/A,,Unknown,180,2014-02-03 20:48:00
3:08 PM,46.0,26.1,46,-9999,-9999.0,South,12.7,-,N/A,,Unknown,190,2014-02-03 21:08:00
3:28 PM,46.0,26.1,46,-9999,-9999.0,South,15.0,-,N/A,,Unknown,180,2014-02-03 21:28:00
3:48 PM,46.9,28.0,48,-9999,-9999.0,SSE,16.1,-,N/A,,Unknown,160,2014-02-03 21:48:00
4:08 PM,48.0,28.0,46,-9999,-9999.0,South,16.1,-,N/A,,Unknown,170,2014-02-03 22:08:00
4:28 PM,48.0,27.1,44,-9999,-9999.0,SSE,17.3,-,N/A,,Unknown,150,2014-02-03 22:28:00
4:48 PM,46.9,27.1,46,-9999,-9999.0,SSE,17.3,-,N/A,,Unknown,160,2014-02-03 22:48:00
5:08 PM,44.1,26.1,49,-9999,-9999.0,SE,19.6,-,N/A,,Unknown,140,2014-02-03 23:08:00
5:28 PM,43.0,26.1,51,-9999,-9999.0,SE,16.1,-,N/A,,Unknown,140,2014-02-03 23:28:00
5:48 PM,42.1,25.2,51,-9999,-9999.0,SE,19.6,-,N/A,,Unknown,140,2014-02-03 23:48:00
6:08 PM,39.9,25.2,56,-9999,-9999.0,SE,18.4,-,N/A,,Unknown,140,2014-02-04 00:08:00
6:28 PM,39.0,25.2,58,-9999,-9999.0,SE,16.1,-,N/A,,Unknown,130,2014-02-04 00:28:00
6:48 PM,37.9,24.1,57,-9999,-9999.0,ESE,16.1,-,N/A,,Unknown,120,2014-02-04 00:48:00
7:08 PM,37.0,25.2,62,-9999,-9999.0,SE,15.0,-,N/A,,Unknown,130,2014-02-04 01:08:00
7:28 PM,36.0,24.1,62,-9999,-9999.0,SE,16.1,-,N/A,,Unknown,130,2014-02-04 01:28:00
7:48 PM,35.1,22.1,59,-9999,-9999.0,SE,19.6,-,N/A,,Unknown,130,2014-02-04 01:48:00
8:08 PM,33.1,23.0,66,-9999,-9999.0,ESE,10.4,-,N/A,,Unknown,120,2014-02-04 02:08:00
8:28 PM,33.1,22.1,64,-9999,-9999.0,ESE,12.7,-,N/A,,Unknown,120,2014-02-04 02:28:00
8:48 PM,33.1,23.0,66,-9999,-9999.0,SE,13.8,-,N/A,,Unknown,130,2014-02-04 02:48:00
9:08 PM,32.0,23.0,69,-9999,-9999.0,East,8.1,-,N/A,,Unknown,100,2014-02-04 03:08:00
9:28 PM,33.1,23.0,66,-9999,-9999.0,SE,12.7,-,N/A,,Unknown,130,2014-02-04 03:28:00
9:48 PM,-9999,-9999,N/A,-9999,4.0,North,-9999.0,-,N/A,,Drizzle,0,2014-02-04 03:48:00
10:08 PM,32.0,23.0,69,-9999,-9999.0,SE,12.7,-,N/A,,Unknown,130,2014-02-04 04:08:00
10:28 PM,32.0,22.1,67,-9999,-9999.0,ESE,12.7,-,N/A,,Unknown,110,2014-02-04 04:28:00
10:48 PM,30.9,20.1,64,-9999,-9999.0,ESE,13.8,-,N/A,,Unknown,120,2014-02-04 04:48:00
11:08 PM,30.0,20.1,67,-9999,-9999.0,ESE,13.8,-,N/A,,Unknown,120,2014-02-04 05:08:00
11:28 PM,30.0,19.0,64,-9999,-9999.0,ESE,16.1,-,N/A,,Unknown,120,2014-02-04 05:28:00
11:48 PM,28.9,21.0,72,-9999,-9999.0,SE,10.4,-,N/A,,Unknown,130,2014-02-04 05:48:00